sensor_id;sensor_type;location;lat;lon;timestamp;temperature;humidity
31084;DHT22;36333;51.382;0.016;2023-02-03T00:02:24;8.70;99.90
31084;DHT22;36333;51.382;0.016;2023-02-03T00:04:52;8.60;99.90
31084;DHT22;36333;51.382;0.016;2023-02-03T00:07:19;8.60;99.90
31084;DHT22;36333;51.382;0.016;2023-02-03T00:09:47;9.30;99.90
31084;DHT22;36333;51.382;0.016;2023-02-03T00:12:14;8.60;99.90
31084;DHT22;36333;51.382;0.016;2023-02-03T00:14:42;8.80;99.90
31084;DHT22;36333;51.382;0.016;2023-02-03T00:17:09;9.00;99.90
31084;DHT22;36333;51.382;0.016;2023-02-03T00:19:36;8.90;99.90
31084;DHT22;36333;51.382;0.016;2023-02-03T00:22:04;8.50;99.90
31084;DHT22;36333;51.382;0.016;2023-02-03T00:24:31;8.60;99.90
31084;DHT22;36333;51.382;0.016;2023-02-03T00:26:59;10.10;99.90
31084;DHT22;36333;51.382;0.016;2023-02-03T00:29:26;8.70;99.90
31084;DHT22;36333;51.382;0.016;2023-02-03T00:31:54;8.80;99.90
31084;DHT22;36333;51.382;0.016;2023-02-03T00:34:22;8.80;99.90
31084;DHT22;36333;51.382;0.016;2023-02-03T00:36:49;8.90;99.90
31084;DHT22;36333;51.382;0.016;2023-02-03T00:39:17;9.00;99.90
31084;DHT22;36333;51.382;0.016;2023-02-03T00:41:46;8.80;99.90
31084;DHT22;36333;51.382;0.016;2023-02-03T00:44:14;9.10;99.90
31084;DHT22;36333;51.382;0.016;2023-02-03T00:46:41;9.10;99.90
31084;DHT22;36333;51.382;0.016;2023-02-03T00:49:08;9.20;99.90
31084;DHT22;36333;51.382;0.016;2023-02-03T00:51:36;9.70;99.90
31084;DHT22;36333;51.382;0.016;2023-02-03T00:54:03;9.60;99.90
31084;DHT22;36333;51.382;0.016;2023-02-03T00:56:31;9.20;99.90
31084;DHT22;36333;51.382;0.016;2023-02-03T00:58:58;9.30;99.90
31084;DHT22;36333;51.382;0.016;2023-02-03T01:01:26;9.30;99.90
31084;DHT22;36333;51.382;0.016;2023-02-03T01:03:54;9.30;99.90
31084;DHT22;36333;51.382;0.016;2023-02-03T01:06:22;9.40;99.90
31084;DHT22;36333;51.382;0.016;2023-02-03T01:08:50;9.90;99.90
31084;DHT22;36333;51.382;0.016;2023-02-03T01:11:21;9.40;99.90
31084;DHT22;36333;51.382;0.016;2023-02-03T01:13:50;9.30;99.90
31084;DHT22;36333;51.382;0.016;2023-02-03T01:16:19;9.40;99.90
31084;DHT22;36333;51.382;0.016;2023-02-03T01:18:47;9.60;99.90
31084;DHT22;36333;51.382;0.016;2023-02-03T01:21:17;9.40;99.90
31084;DHT22;36333;51.382;0.016;2023-02-03T01:23:45;9.40;99.90
31084;DHT22;36333;51.382;0.016;2023-02-03T01:26:15;9.40;99.90
31084;DHT22;36333;51.382;0.016;2023-02-03T01:28:43;9.50;99.90
31084;DHT22;36333;51.382;0.016;2023-02-03T01:31:16;9.50;99.90
31084;DHT22;36333;51.382;0.016;2023-02-03T01:33:45;9.60;99.90
31084;DHT22;36333;51.382;0.016;2023-02-03T01:36:15;9.90;99.90
31084;DHT22;36333;51.382;0.016;2023-02-03T01:38:44;9.50;99.90
31084;DHT22;36333;51.382;0.016;2023-02-03T01:41:14;9.60;99.90
31084;DHT22;36333;51.382;0.016;2023-02-03T01:43:50;9.50;99.90
31084;DHT22;36333;51.382;0.016;2023-02-03T01:46:28;9.60;99.90
31084;DHT22;36333;51.382;0.016;2023-02-03T01:49:10;9.60;99.90
31084;DHT22;36333;51.382;0.016;2023-02-03T01:51:40;10.10;99.90
31084;DHT22;36333;51.382;0.016;2023-02-03T01:54:14;9.60;99.90
31084;DHT22;36333;51.382;0.016;2023-02-03T01:56:49;9.50;99.90
31084;DHT22;36333;51.382;0.016;2023-02-03T01:59:18;9.70;99.90
31084;DHT22;36333;51.382;0.016;2023-02-03T02:01:49;9.90;99.90
31084;DHT22;36333;51.382;0.016;2023-02-03T02:04:19;9.70;99.90
31084;DHT22;36333;51.382;0.016;2023-02-03T02:06:47;10.00;99.90
31084;DHT22;36333;51.382;0.016;2023-02-03T02:09:14;9.70;99.90
31084;DHT22;36333;51.382;0.016;2023-02-03T02:11:42;9.70;99.90
31084;DHT22;36333;51.382;0.016;2023-02-03T02:14:10;9.70;99.90
31084;DHT22;36333;51.382;0.016;2023-02-03T02:19:25;9.70;99.90
31084;DHT22;36333;51.382;0.016;2023-02-03T02:22:17;9.70;99.90
31084;DHT22;36333;51.382;0.016;2023-02-03T02:33:41;9.70;99.90
31084;DHT22;36333;51.382;0.016;2023-02-03T02:36:30;9.70;99.90
31084;DHT22;36333;51.382;0.016;2023-02-03T02:39:07;9.70;99.90
31084;DHT22;36333;51.382;0.016;2023-02-03T02:44:17;10.00;99.90
31084;DHT22;36333;51.382;0.016;2023-02-03T02:46:51;9.60;99.90
31084;DHT22;36333;51.382;0.016;2023-02-03T02:51:59;9.70;99.90
31084;DHT22;36333;51.382;0.016;2023-02-03T02:54:28;9.70;99.90
31084;DHT22;36333;51.382;0.016;2023-02-03T02:57:00;9.60;99.90
31084;DHT22;36333;51.382;0.016;2023-02-03T02:59:30;9.30;99.90
31084;DHT22;36333;51.382;0.016;2023-02-03T03:01:58;9.40;99.90
31084;DHT22;36333;51.382;0.016;2023-02-03T03:04:27;10.40;99.90
31084;DHT22;36333;51.382;0.016;2023-02-03T03:10:07;9.70;99.90
31084;DHT22;36333;51.382;0.016;2023-02-03T03:12:42;9.60;99.90
31084;DHT22;36333;51.382;0.016;2023-02-03T03:15:19;10.10;99.90
31084;DHT22;36333;51.382;0.016;2023-02-03T03:18:14;9.60;99.90
31084;DHT22;36333;51.382;0.016;2023-02-03T03:20:43;9.30;99.90
31084;DHT22;36333;51.382;0.016;2023-02-03T03:23:43;9.60;99.90
31084;DHT22;36333;51.382;0.016;2023-02-03T03:26:33;9.60;99.90
31084;DHT22;36333;51.382;0.016;2023-02-03T03:29:18;9.60;99.90
31084;DHT22;36333;51.382;0.016;2023-02-03T03:31:47;9.50;99.90
31084;DHT22;36333;51.382;0.016;2023-02-03T03:34:16;9.50;99.90
31084;DHT22;36333;51.382;0.016;2023-02-03T03:36:47;9.50;99.90
31084;DHT22;36333;51.382;0.016;2023-02-03T03:42:15;9.40;99.90
31084;DHT22;36333;51.382;0.016;2023-02-03T03:44:53;9.40;99.90
31084;DHT22;36333;51.382;0.016;2023-02-03T03:47:29;9.30;99.90
31084;DHT22;36333;51.382;0.016;2023-02-03T03:49:59;10.10;99.90
31084;DHT22;36333;51.382;0.016;2023-02-03T03:52:31;10.70;99.90
31084;DHT22;36333;51.382;0.016;2023-02-03T03:55:01;10.40;99.90
31084;DHT22;36333;51.382;0.016;2023-02-03T03:57:33;9.10;99.90
31084;DHT22;36333;51.382;0.016;2023-02-03T04:00:05;9.40;99.90
31084;DHT22;36333;51.382;0.016;2023-02-03T04:02:39;9.40;99.90
31084;DHT22;36333;51.382;0.016;2023-02-03T04:05:09;9.30;99.90
31084;DHT22;36333;51.382;0.016;2023-02-03T04:07:41;9.30;99.90
31084;DHT22;36333;51.382;0.016;2023-02-03T04:10:35;9.30;99.90
31084;DHT22;36333;51.382;0.016;2023-02-03T04:13:03;9.30;99.90
31084;DHT22;36333;51.382;0.016;2023-02-03T04:15:32;9.30;99.90
31084;DHT22;36333;51.382;0.016;2023-02-03T04:18:00;9.20;99.90
31084;DHT22;36333;51.382;0.016;2023-02-03T04:20:29;9.20;99.90
31084;DHT22;36333;51.382;0.016;2023-02-03T04:22:57;10.00;99.90
31084;DHT22;36333;51.382;0.016;2023-02-03T04:25:25;9.50;99.90
31084;DHT22;36333;51.382;0.016;2023-02-03T04:27:54;8.90;99.90
31084;DHT22;36333;51.382;0.016;2023-02-03T04:30:21;8.90;99.90
31084;DHT22;36333;51.382;0.016;2023-02-03T04:32:49;8.80;99.90
31084;DHT22;36333;51.382;0.016;2023-02-03T04:35:17;8.80;99.90
31084;DHT22;36333;51.382;0.016;2023-02-03T04:37:45;8.70;99.90
31084;DHT22;36333;51.382;0.016;2023-02-03T04:40:13;8.70;99.90
31084;DHT22;36333;51.382;0.016;2023-02-03T04:42:41;8.70;99.90
31084;DHT22;36333;51.382;0.016;2023-02-03T04:45:09;9.10;99.90
31084;DHT22;36333;51.382;0.016;2023-02-03T04:47:37;9.90;99.90
31084;DHT22;36333;51.382;0.016;2023-02-03T04:50:06;8.70;99.90
31084;DHT22;36333;51.382;0.016;2023-02-03T04:52:34;8.70;99.90
31084;DHT22;36333;51.382;0.016;2023-02-03T04:55:01;8.70;99.90
31084;DHT22;36333;51.382;0.016;2023-02-03T04:57:30;8.60;99.90
31084;DHT22;36333;51.382;0.016;2023-02-03T04:59:57;8.70;99.90
31084;DHT22;36333;51.382;0.016;2023-02-03T05:02:25;8.70;99.90
31084;DHT22;36333;51.382;0.016;2023-02-03T05:04:53;8.70;99.90
31084;DHT22;36333;51.382;0.016;2023-02-03T05:07:20;8.50;99.90
31084;DHT22;36333;51.382;0.016;2023-02-03T05:09:48;9.30;99.90
31084;DHT22;36333;51.382;0.016;2023-02-03T05:12:15;8.60;99.90
31084;DHT22;36333;51.382;0.016;2023-02-03T05:14:42;9.20;99.90
31084;DHT22;36333;51.382;0.016;2023-02-03T05:17:10;9.00;99.90
31084;DHT22;36333;51.382;0.016;2023-02-03T05:19:37;9.00;99.90
31084;DHT22;36333;51.382;0.016;2023-02-03T05:22:05;9.00;99.90
31084;DHT22;36333;51.382;0.016;2023-02-03T05:24:32;9.10;99.90
31084;DHT22;36333;51.382;0.016;2023-02-03T05:27:00;9.20;99.90
31084;DHT22;36333;51.382;0.016;2023-02-03T05:29:27;9.10;99.90
31084;DHT22;36333;51.382;0.016;2023-02-03T05:31:55;9.20;99.90
31084;DHT22;36333;51.382;0.016;2023-02-03T05:34:22;9.50;99.90
31084;DHT22;36333;51.382;0.016;2023-02-03T05:36:50;9.10;99.90
31084;DHT22;36333;51.382;0.016;2023-02-03T05:39:17;9.80;99.90
31084;DHT22;36333;51.382;0.016;2023-02-03T05:41:45;9.50;99.90
31084;DHT22;36333;51.382;0.016;2023-02-03T05:44:23;9.40;99.90
31084;DHT22;36333;51.382;0.016;2023-02-03T05:46:52;8.80;99.90
31084;DHT22;36333;51.382;0.016;2023-02-03T05:49:21;8.70;99.90
31084;DHT22;36333;51.382;0.016;2023-02-03T05:51:51;8.80;99.90
31084;DHT22;36333;51.382;0.016;2023-02-03T05:54:18;9.40;99.90
31084;DHT22;36333;51.382;0.016;2023-02-03T05:56:46;8.70;99.90
31084;DHT22;36333;51.382;0.016;2023-02-03T05:59:14;8.40;99.90
31084;DHT22;36333;51.382;0.016;2023-02-03T06:01:41;8.60;99.90
31084;DHT22;36333;51.382;0.016;2023-02-03T06:04:09;10.10;99.90
31084;DHT22;36333;51.382;0.016;2023-02-03T06:06:36;8.60;99.90
31084;DHT22;36333;51.382;0.016;2023-02-03T06:09:06;9.90;99.90
31084;DHT22;36333;51.382;0.016;2023-02-03T06:11:34;8.70;99.90
31084;DHT22;36333;51.382;0.016;2023-02-03T06:14:02;8.60;99.90
31084;DHT22;36333;51.382;0.016;2023-02-03T06:16:30;8.60;99.90
31084;DHT22;36333;51.382;0.016;2023-02-03T06:18:58;8.60;99.90
31084;DHT22;36333;51.382;0.016;2023-02-03T06:21:27;8.50;99.90
31084;DHT22;36333;51.382;0.016;2023-02-03T06:23:55;8.60;99.90
31084;DHT22;36333;51.382;0.016;2023-02-03T06:26:23;8.70;99.90
31084;DHT22;36333;51.382;0.016;2023-02-03T06:28:51;8.20;99.90
31084;DHT22;36333;51.382;0.016;2023-02-03T06:31:19;8.60;99.90
31084;DHT22;36333;51.382;0.016;2023-02-03T06:33:46;8.60;99.90
31084;DHT22;36333;51.382;0.016;2023-02-03T06:36:14;8.60;99.90
31084;DHT22;36333;51.382;0.016;2023-02-03T06:38:41;8.50;99.90
31084;DHT22;36333;51.382;0.016;2023-02-03T06:41:09;8.40;99.90
31084;DHT22;36333;51.382;0.016;2023-02-03T06:43:36;9.40;99.90
31084;DHT22;36333;51.382;0.016;2023-02-03T06:46:04;8.30;99.90
31084;DHT22;36333;51.382;0.016;2023-02-03T06:48:31;9.40;99.90
31084;DHT22;36333;51.382;0.016;2023-02-03T06:50:59;8.60;99.90
31084;DHT22;36333;51.382;0.016;2023-02-03T06:53:26;8.60;99.90
31084;DHT22;36333;51.382;0.016;2023-02-03T06:55:54;8.60;99.90
31084;DHT22;36333;51.382;0.016;2023-02-03T06:58:21;8.30;99.90
31084;DHT22;36333;51.382;0.016;2023-02-03T07:00:49;8.60;99.90
31084;DHT22;36333;51.382;0.016;2023-02-03T07:03:18;10.10;99.90
31084;DHT22;36333;51.382;0.016;2023-02-03T07:05:45;8.60;99.90
31084;DHT22;36333;51.382;0.016;2023-02-03T07:08:13;8.60;99.90
31084;DHT22;36333;51.382;0.016;2023-02-03T07:10:40;8.60;99.90
31084;DHT22;36333;51.382;0.016;2023-02-03T07:13:08;8.60;99.90
31084;DHT22;36333;51.382;0.016;2023-02-03T07:15:35;9.30;99.90
31084;DHT22;36333;51.382;0.016;2023-02-03T07:18:03;8.70;99.90
31084;DHT22;36333;51.382;0.016;2023-02-03T07:20:30;8.70;99.90
31084;DHT22;36333;51.382;0.016;2023-02-03T07:22:59;9.00;99.90
31084;DHT22;36333;51.382;0.016;2023-02-03T07:25:26;8.70;99.90
31084;DHT22;36333;51.382;0.016;2023-02-03T07:27:54;8.70;99.90
31084;DHT22;36333;51.382;0.016;2023-02-03T07:30:22;8.70;99.90
31084;DHT22;36333;51.382;0.016;2023-02-03T07:32:50;8.20;99.90
31084;DHT22;36333;51.382;0.016;2023-02-03T07:35:18;8.80;99.90
31084;DHT22;36333;51.382;0.016;2023-02-03T07:37:46;8.60;99.90
31084;DHT22;36333;51.382;0.016;2023-02-03T07:40:14;7.90;99.90
31084;DHT22;36333;51.382;0.016;2023-02-03T07:42:46;8.60;99.90
31084;DHT22;36333;51.382;0.016;2023-02-03T07:45:15;9.30;99.90
31084;DHT22;36333;51.382;0.016;2023-02-03T07:47:43;8.60;99.90
31084;DHT22;36333;51.382;0.016;2023-02-03T07:50:11;8.90;99.90
31084;DHT22;36333;51.382;0.016;2023-02-03T07:52:39;8.80;99.90
31084;DHT22;36333;51.382;0.016;2023-02-03T07:55:07;9.60;99.90
31084;DHT22;36333;51.382;0.016;2023-02-03T07:57:35;8.60;99.90
31084;DHT22;36333;51.382;0.016;2023-02-03T08:00:03;8.60;99.90
31084;DHT22;36333;51.382;0.016;2023-02-03T08:02:39;8.60;99.90
31084;DHT22;36333;51.382;0.016;2023-02-03T08:05:06;9.80;99.90
31084;DHT22;36333;51.382;0.016;2023-02-03T08:07:34;8.60;99.90
31084;DHT22;36333;51.382;0.016;2023-02-03T08:10:02;9.40;99.90
31084;DHT22;36333;51.382;0.016;2023-02-03T08:12:30;8.60;99.90
31084;DHT22;36333;51.382;0.016;2023-02-03T08:14:58;8.60;99.90
31084;DHT22;36333;51.382;0.016;2023-02-03T08:17:25;8.60;99.90
31084;DHT22;36333;51.382;0.016;2023-02-03T08:19:53;8.70;99.90
31084;DHT22;36333;51.382;0.016;2023-02-03T08:22:20;10.20;99.90
31084;DHT22;36333;51.382;0.016;2023-02-03T08:24:48;8.60;99.90
31084;DHT22;36333;51.382;0.016;2023-02-03T08:27:18;9.80;99.90
31084;DHT22;36333;51.382;0.016;2023-02-03T08:29:46;8.70;99.90
31084;DHT22;36333;51.382;0.016;2023-02-03T08:32:16;8.80;99.90
31084;DHT22;36333;51.382;0.016;2023-02-03T08:34:44;10.30;99.90
31084;DHT22;36333;51.382;0.016;2023-02-03T08:37:13;9.30;99.90
31084;DHT22;36333;51.382;0.016;2023-02-03T08:39:41;8.90;99.90
31084;DHT22;36333;51.382;0.016;2023-02-03T08:42:09;8.90;99.90
31084;DHT22;36333;51.382;0.016;2023-02-03T08:44:37;9.10;99.90
31084;DHT22;36333;51.382;0.016;2023-02-03T08:47:15;8.90;99.90
31084;DHT22;36333;51.382;0.016;2023-02-03T08:49:44;10.70;99.90
31084;DHT22;36333;51.382;0.016;2023-02-03T08:52:12;10.40;99.90
31084;DHT22;36333;51.382;0.016;2023-02-03T08:54:40;9.70;99.90
31084;DHT22;36333;51.382;0.016;2023-02-03T08:57:08;9.10;99.90
31084;DHT22;36333;51.382;0.016;2023-02-03T08:59:40;9.10;99.90
31084;DHT22;36333;51.382;0.016;2023-02-03T09:02:14;9.60;99.90
31084;DHT22;36333;51.382;0.016;2023-02-03T09:04:43;9.60;99.90
31084;DHT22;36333;51.382;0.016;2023-02-03T09:07:11;9.70;99.90
31084;DHT22;36333;51.382;0.016;2023-02-03T09:09:39;10.70;99.90
31084;DHT22;36333;51.382;0.016;2023-02-03T09:12:07;9.50;99.90
31084;DHT22;36333;51.382;0.016;2023-02-03T09:14:35;9.30;99.90
31084;DHT22;36333;51.382;0.016;2023-02-03T09:17:03;9.40;99.90
31084;DHT22;36333;51.382;0.016;2023-02-03T09:19:31;9.40;99.90
31084;DHT22;36333;51.382;0.016;2023-02-03T09:22:02;9.50;99.90
31084;DHT22;36333;51.382;0.016;2023-02-03T09:24:30;9.50;99.90
31084;DHT22;36333;51.382;0.016;2023-02-03T09:26:57;9.60;99.90
31084;DHT22;36333;51.382;0.016;2023-02-03T09:29:27;9.60;99.90
31084;DHT22;36333;51.382;0.016;2023-02-03T09:31:55;9.60;99.90
31084;DHT22;36333;51.382;0.016;2023-02-03T09:34:22;10.60;99.90
31084;DHT22;36333;51.382;0.016;2023-02-03T09:36:50;9.70;99.90
31084;DHT22;36333;51.382;0.016;2023-02-03T09:39:17;9.70;99.90
31084;DHT22;36333;51.382;0.016;2023-02-03T09:47:24;9.80;99.90
31084;DHT22;36333;51.382;0.016;2023-02-03T09:49:59;9.90;99.90
31084;DHT22;36333;51.382;0.016;2023-02-03T09:52:33;10.80;99.90
31084;DHT22;36333;51.382;0.016;2023-02-03T09:55:37;10.40;99.90
31084;DHT22;36333;51.382;0.016;2023-02-03T10:00:35;10.10;99.90
31084;DHT22;36333;51.382;0.016;2023-02-03T10:12:01;10.20;99.90
31084;DHT22;36333;51.382;0.016;2023-02-03T10:15:02;10.80;99.90
31084;DHT22;36333;51.382;0.016;2023-02-03T10:17:39;10.30;99.90
31084;DHT22;36333;51.382;0.016;2023-02-03T10:20:30;10.30;99.90
31084;DHT22;36333;51.382;0.016;2023-02-03T10:23:08;10.30;99.90
31084;DHT22;36333;51.382;0.016;2023-02-03T10:25:51;10.30;99.90
31084;DHT22;36333;51.382;0.016;2023-02-03T10:28:30;10.30;99.90
31084;DHT22;36333;51.382;0.016;2023-02-03T10:31:00;10.40;99.90
31084;DHT22;36333;51.382;0.016;2023-02-03T10:33:32;10.40;99.90
31084;DHT22;36333;51.382;0.016;2023-02-03T10:36:05;10.40;99.90
31084;DHT22;36333;51.382;0.016;2023-02-03T10:41:03;10.50;99.90
31084;DHT22;36333;51.382;0.016;2023-02-03T10:43:32;10.60;99.90
31084;DHT22;36333;51.382;0.016;2023-02-03T10:46:26;10.50;99.90
31084;DHT22;36333;51.382;0.016;2023-02-03T10:48:55;10.50;99.90
31084;DHT22;36333;51.382;0.016;2023-02-03T10:51:28;10.50;99.90
31084;DHT22;36333;51.382;0.016;2023-02-03T10:53:59;10.40;99.90
31084;DHT22;36333;51.382;0.016;2023-02-03T10:56:45;10.50;99.90
31084;DHT22;36333;51.382;0.016;2023-02-03T10:59:27;10.50;99.90
31084;DHT22;36333;51.382;0.016;2023-02-03T11:01:56;10.60;99.90
31084;DHT22;36333;51.382;0.016;2023-02-03T11:04:31;10.60;99.90
31084;DHT22;36333;51.382;0.016;2023-02-03T11:07:01;11.30;99.90
31084;DHT22;36333;51.382;0.016;2023-02-03T11:09:39;10.50;99.90
31084;DHT22;36333;51.382;0.016;2023-02-03T11:12:15;10.80;99.90
31084;DHT22;36333;51.382;0.016;2023-02-03T11:14:45;10.90;99.90
31084;DHT22;36333;51.382;0.016;2023-02-03T11:17:22;11.00;99.90
31084;DHT22;36333;51.382;0.016;2023-02-03T11:19:52;11.10;99.90
31084;DHT22;36333;51.382;0.016;2023-02-03T11:22:29;11.40;99.90
31084;DHT22;36333;51.382;0.016;2023-02-03T11:24:58;11.20;99.90
31084;DHT22;36333;51.382;0.016;2023-02-03T11:27:29;11.30;99.90
31084;DHT22;36333;51.382;0.016;2023-02-03T11:30:16;11.80;99.90
31084;DHT22;36333;51.382;0.016;2023-02-03T11:32:47;11.40;99.90
31084;DHT22;36333;51.382;0.016;2023-02-03T11:35:23;11.60;99.90
31084;DHT22;36333;51.382;0.016;2023-02-03T11:37:55;11.60;99.90
31084;DHT22;36333;51.382;0.016;2023-02-03T11:40:31;11.50;99.90
31084;DHT22;36333;51.382;0.016;2023-02-03T11:43:09;11.50;99.90
31084;DHT22;36333;51.382;0.016;2023-02-03T11:45:49;11.40;99.90
31084;DHT22;36333;51.382;0.016;2023-02-03T11:48:40;11.60;99.90
31084;DHT22;36333;51.382;0.016;2023-02-03T11:54:13;11.60;99.90
31084;DHT22;36333;51.382;0.016;2023-02-03T12:05:50;11.70;99.90
31084;DHT22;36333;51.382;0.016;2023-02-03T12:08:58;11.70;99.90
31084;DHT22;36333;51.382;0.016;2023-02-03T12:11:50;11.70;99.90
31084;DHT22;36333;51.382;0.016;2023-02-03T12:20:02;11.60;99.90
31084;DHT22;36333;51.382;0.016;2023-02-03T12:28:34;12.00;99.90
31084;DHT22;36333;51.382;0.016;2023-02-03T12:31:21;12.10;99.90
31084;DHT22;36333;51.382;0.016;2023-02-03T12:33:55;12.20;99.90
31084;DHT22;36333;51.382;0.016;2023-02-03T12:36:39;12.30;99.90
31084;DHT22;36333;51.382;0.016;2023-02-03T12:39:19;12.30;99.90
31084;DHT22;36333;51.382;0.016;2023-02-03T12:41:54;12.20;99.90
31084;DHT22;36333;51.382;0.016;2023-02-03T12:44:57;12.40;99.90
31084;DHT22;36333;51.382;0.016;2023-02-03T12:50:40;12.40;99.90
31084;DHT22;36333;51.382;0.016;2023-02-03T12:53:33;12.40;99.90
31084;DHT22;36333;51.382;0.016;2023-02-03T12:56:07;12.50;99.90
31084;DHT22;36333;51.382;0.016;2023-02-03T12:58:54;12.50;99.90
31084;DHT22;36333;51.382;0.016;2023-02-03T13:01:40;12.50;99.90
31084;DHT22;36333;51.382;0.016;2023-02-03T13:07:16;12.50;99.90
31084;DHT22;36333;51.382;0.016;2023-02-03T13:12:38;12.40;99.90
31084;DHT22;36333;51.382;0.016;2023-02-03T13:20:37;12.30;99.90
31084;DHT22;36333;51.382;0.016;2023-02-03T13:23:13;12.20;99.90
31084;DHT22;36333;51.382;0.016;2023-02-03T13:28:43;12.50;99.90
31084;DHT22;36333;51.382;0.016;2023-02-03T13:37:29;12.70;99.90
31084;DHT22;36333;51.382;0.016;2023-02-03T13:42:56;12.80;99.90
31084;DHT22;36333;51.382;0.016;2023-02-03T13:45:30;12.90;99.90
31084;DHT22;36333;51.382;0.016;2023-02-03T13:48:20;12.90;99.90
31084;DHT22;36333;51.382;0.016;2023-02-03T13:51:16;12.90;99.90
31084;DHT22;36333;51.382;0.016;2023-02-03T13:53:47;13.00;99.90
31084;DHT22;36333;51.382;0.016;2023-02-03T13:56:25;13.00;99.90
31084;DHT22;36333;51.382;0.016;2023-02-03T14:01:40;13.00;99.90
31084;DHT22;36333;51.382;0.016;2023-02-03T14:07:01;12.90;99.90
31084;DHT22;36333;51.382;0.016;2023-02-03T14:20:03;13.10;99.90
31084;DHT22;36333;51.382;0.016;2023-02-03T14:22:31;13.20;99.90
31084;DHT22;36333;51.382;0.016;2023-02-03T14:25:04;13.30;99.90
31084;DHT22;36333;51.382;0.016;2023-02-03T14:27:35;13.20;99.90
31084;DHT22;36333;51.382;0.016;2023-02-03T14:30:14;13.20;99.90
31084;DHT22;36333;51.382;0.016;2023-02-03T14:33:01;13.10;99.90
31084;DHT22;36333;51.382;0.016;2023-02-03T14:35:32;14.20;99.90
31084;DHT22;36333;51.382;0.016;2023-02-03T14:38:12;13.10;99.90
31084;DHT22;36333;51.382;0.016;2023-02-03T14:46:34;13.00;99.90
31084;DHT22;36333;51.382;0.016;2023-02-03T14:49:32;13.00;99.90
31084;DHT22;36333;51.382;0.016;2023-02-03T14:57:48;13.30;99.90
31084;DHT22;36333;51.382;0.016;2023-02-03T15:05:45;12.70;99.90
31084;DHT22;36333;51.382;0.016;2023-02-03T15:08:37;12.60;99.90
31084;DHT22;36333;51.382;0.016;2023-02-03T15:11:31;12.50;99.90
31084;DHT22;36333;51.382;0.016;2023-02-03T15:17:00;12.30;99.90
31084;DHT22;36333;51.382;0.016;2023-02-03T15:19:37;12.30;99.90
31084;DHT22;36333;51.382;0.016;2023-02-03T15:22:29;12.20;99.90
31084;DHT22;36333;51.382;0.016;2023-02-03T15:25:02;12.20;99.90
31084;DHT22;36333;51.382;0.016;2023-02-03T15:27:32;12.10;99.90
31084;DHT22;36333;51.382;0.016;2023-02-03T15:30:14;12.10;99.90
31084;DHT22;36333;51.382;0.016;2023-02-03T15:32:47;12.00;99.90
31084;DHT22;36333;51.382;0.016;2023-02-03T15:35:21;12.20;99.90
31084;DHT22;36333;51.382;0.016;2023-02-03T15:38:02;11.70;99.90
31084;DHT22;36333;51.382;0.016;2023-02-03T15:40:39;11.80;99.90
31084;DHT22;36333;51.382;0.016;2023-02-03T15:43:17;11.70;99.90
31084;DHT22;36333;51.382;0.016;2023-02-03T15:51:01;11.70;99.90
31084;DHT22;36333;51.382;0.016;2023-02-03T15:53:32;11.80;99.90
31084;DHT22;36333;51.382;0.016;2023-02-03T15:58:55;11.80;99.90
31084;DHT22;36333;51.382;0.016;2023-02-03T16:01:25;11.70;99.90
31084;DHT22;36333;51.382;0.016;2023-02-03T16:03:55;11.50;99.90
31084;DHT22;36333;51.382;0.016;2023-02-03T16:06:33;11.80;99.90
31084;DHT22;36333;51.382;0.016;2023-02-03T16:09:05;11.40;99.90
31084;DHT22;36333;51.382;0.016;2023-02-03T16:11:38;11.90;99.90
31084;DHT22;36333;51.382;0.016;2023-02-03T16:14:31;11.30;99.90
31084;DHT22;36333;51.382;0.016;2023-02-03T16:16:59;11.30;99.90
31084;DHT22;36333;51.382;0.016;2023-02-03T16:19:32;11.30;99.90
31084;DHT22;36333;51.382;0.016;2023-02-03T16:22:29;11.20;99.90
31084;DHT22;36333;51.382;0.016;2023-02-03T16:25:18;11.20;99.90
31084;DHT22;36333;51.382;0.016;2023-02-03T16:27:57;11.10;99.90
31084;DHT22;36333;51.382;0.016;2023-02-03T16:30:55;11.20;99.90
31084;DHT22;36333;51.382;0.016;2023-02-03T16:33:46;11.00;99.90
31084;DHT22;36333;51.382;0.016;2023-02-03T16:36:40;11.10;99.90
31084;DHT22;36333;51.382;0.016;2023-02-03T16:39:29;10.90;99.90
31084;DHT22;36333;51.382;0.016;2023-02-03T16:42:19;11.70;99.90
31084;DHT22;36333;51.382;0.016;2023-02-03T16:45:13;11.20;99.90
31084;DHT22;36333;51.382;0.016;2023-02-03T16:48:01;10.70;99.90
31084;DHT22;36333;51.382;0.016;2023-02-03T16:50:48;10.70;99.90
31084;DHT22;36333;51.382;0.016;2023-02-03T16:53:30;10.70;99.90
31084;DHT22;36333;51.382;0.016;2023-02-03T16:56:10;10.40;99.90
31084;DHT22;36333;51.382;0.016;2023-02-03T16:58:39;11.40;99.90
31084;DHT22;36333;51.382;0.016;2023-02-03T17:01:10;10.50;99.90
31084;DHT22;36333;51.382;0.016;2023-02-03T17:03:44;9.10;99.90
31084;DHT22;36333;51.382;0.016;2023-02-03T17:06:12;10.40;99.90
31084;DHT22;36333;51.382;0.016;2023-02-03T17:08:45;10.40;99.90
31084;DHT22;36333;51.382;0.016;2023-02-03T17:11:25;10.40;99.90
31084;DHT22;36333;51.382;0.016;2023-02-03T17:13:53;10.80;99.90
31084;DHT22;36333;51.382;0.016;2023-02-03T17:16:23;10.70;99.90
31084;DHT22;36333;51.382;0.016;2023-02-03T17:18:53;10.20;99.90
31084;DHT22;36333;51.382;0.016;2023-02-03T17:21:23;10.70;99.90
31084;DHT22;36333;51.382;0.016;2023-02-03T17:23:52;10.50;99.90
31084;DHT22;36333;51.382;0.016;2023-02-03T17:26:20;10.20;99.90
31084;DHT22;36333;51.382;0.016;2023-02-03T17:28:47;10.00;99.90
31084;DHT22;36333;51.382;0.016;2023-02-03T17:31:17;11.30;99.90
31084;DHT22;36333;51.382;0.016;2023-02-03T17:33:49;10.00;99.90
31084;DHT22;36333;51.382;0.016;2023-02-03T17:36:18;9.90;99.90
31084;DHT22;36333;51.382;0.016;2023-02-03T17:38:53;11.40;99.90
31084;DHT22;36333;51.382;0.016;2023-02-03T17:41:40;9.90;99.90
31084;DHT22;36333;51.382;0.016;2023-02-03T17:44:26;9.70;99.90
31084;DHT22;36333;51.382;0.016;2023-02-03T17:47:12;10.70;99.90
31084;DHT22;36333;51.382;0.016;2023-02-03T17:49:57;9.70;99.90
31084;DHT22;36333;51.382;0.016;2023-02-03T17:52:43;9.70;99.90
31084;DHT22;36333;51.382;0.016;2023-02-03T17:55:30;9.70;99.90
31084;DHT22;36333;51.382;0.016;2023-02-03T17:57:58;9.60;99.90
31084;DHT22;36333;51.382;0.016;2023-02-03T18:00:28;9.60;99.90
31084;DHT22;36333;51.382;0.016;2023-02-03T18:02:57;9.50;99.90
31084;DHT22;36333;51.382;0.016;2023-02-03T18:05:24;10.20;99.90
31084;DHT22;36333;51.382;0.016;2023-02-03T18:07:52;9.40;99.90
31084;DHT22;36333;51.382;0.016;2023-02-03T18:10:20;9.40;99.90
31084;DHT22;36333;51.382;0.016;2023-02-03T18:12:47;11.20;99.90
31084;DHT22;36333;51.382;0.016;2023-02-03T18:15:15;9.50;99.90
31084;DHT22;36333;51.382;0.016;2023-02-03T18:17:43;9.40;99.90
31084;DHT22;36333;51.382;0.016;2023-02-03T18:20:11;9.30;99.90
31084;DHT22;36333;51.382;0.016;2023-02-03T18:22:38;9.40;99.90
31084;DHT22;36333;51.382;0.016;2023-02-03T18:25:11;9.30;99.90
31084;DHT22;36333;51.382;0.016;2023-02-03T18:27:46;9.60;99.90
31084;DHT22;36333;51.382;0.016;2023-02-03T18:30:13;10.00;99.90
31084;DHT22;36333;51.382;0.016;2023-02-03T18:32:41;9.50;99.90